Time;durP1;ratioP1;P1;durP2;ratioP2;P2;SDS_P1;SDS_P2;PMS_P1;PMS_P2;Temp;Humidity;BMP_temperature;BMP_pressure;BME280_temperature;BME280_humidity;BME280_pressure;Samples;Min_cycle;Max_cycle;Signal;HPM_P1;HPM_P2
2021/12/28 00:00:33;;;;;;;17.70;13.63;;;9.00;90.90;;;;;;5022574;28;20056;-77
2021/12/28 00:02:59;;;;;;;14.48;12.40;;;8.90;90.80;;;;;;5030041;28;20032;-77
2021/12/28 00:05:27;;;;;;;16.88;13.60;;;8.90;90.90;;;;;;5023709;28;20365;-77
2021/12/28 00:07:53;;;;;;;14.07;12.45;;;9.00;90.90;;;;;;5012802;28;20037;-77
2021/12/28 00:10:20;;;;;;;18.17;12.05;;;8.90;90.90;;;;;;4995142;28;20029;-77
2021/12/28 00:12:46;;;;;;;16.05;12.50;;;9.00;90.90;;;;;;5022816;28;20485;-77
2021/12/28 00:18:04;;;;;;;13.68;11.35;;;9.00;91.00;;;;;;5022548;28;20037;-77
2021/12/28 00:20:40;;;;;;;15.65;12.63;;;9.00;90.90;;;;;;4997335;28;20041;-77
2021/12/28 00:23:11;;;;;;;15.02;11.43;;;9.00;90.90;;;;;;5015275;28;20060;-77
2021/12/28 00:25:36;;;;;;;18.73;12.23;;;9.00;90.90;;;;;;5024074;28;20120;-77
2021/12/28 00:28:03;;;;;;;16.60;12.65;;;9.00;90.90;;;;;;5020599;28;20124;-77
2021/12/28 00:30:29;;;;;;;17.58;12.32;;;9.00;90.90;;;;;;5002603;28;20492;-77
2021/12/28 00:32:56;;;;;;;15.95;11.98;;;9.00;90.90;;;;;;5016542;28;20026;-77
2021/12/28 00:35:30;;;;;;;19.42;13.23;;;9.00;91.00;;;;;;5007112;28;20051;-77
2021/12/28 00:37:56;;;;;;;18.55;12.73;;;9.00;91.00;;;;;;5017436;28;20041;-77
2021/12/28 00:40:23;;;;;;;16.40;12.38;;;9.00;91.00;;;;;;5011601;28;20214;-77
2021/12/28 00:42:48;;;;;;;15.60;12.93;;;9.00;91.00;;;;;;5026125;28;20026;-77
2021/12/28 00:45:15;;;;;;;19.00;12.05;;;9.00;91.00;;;;;;5013657;28;20036;-77
2021/12/28 00:47:41;;;;;;;18.05;12.25;;;9.00;91.00;;;;;;5018408;28;20033;-77
2021/12/28 00:50:09;;;;;;;15.43;10.52;;;9.00;91.00;;;;;;5029721;28;20025;-77
2021/12/28 00:52:35;;;;;;;19.45;10.13;;;9.00;91.00;;;;;;4997063;28;20022;-77
2021/12/28 00:55:02;;;;;;;17.42;11.00;;;9.00;91.00;;;;;;5014233;28;20137;-77
2021/12/28 00:57:28;;;;;;;16.10;10.85;;;9.00;91.00;;;;;;5001620;28;20037;-77
2021/12/28 00:59:53;;;;;;;18.25;10.45;;;8.90;90.90;;;;;;5012035;28;20026;-77
2021/12/28 01:02:19;;;;;;;16.17;10.38;;;8.90;90.90;;;;;;5028396;28;20499;-77
2021/12/28 01:04:45;;;;;;;15.93;10.35;;;8.90;90.90;;;;;;5019969;28;20038;-77
2021/12/28 01:07:11;;;;;;;15.18;10.60;;;8.90;90.90;;;;;;5029516;28;20037;-77
2021/12/28 01:09:36;;;;;;;15.60;10.65;;;8.90;90.90;;;;;;5001404;28;20392;-77
2021/12/28 01:12:05;;;;;;;15.13;10.38;;;8.90;90.90;;;;;;5026148;28;20436;-77
2021/12/28 01:14:31;;;;;;;13.85;9.88;;;8.90;90.80;;;;;;4997250;28;20428;-77
2021/12/28 01:16:59;;;;;;;13.50;9.70;;;8.90;90.90;;;;;;5025757;28;20026;-77
2021/12/28 01:19:26;;;;;;;18.30;9.82;;;8.80;90.80;;;;;;5021912;28;20032;-77
2021/12/28 01:21:52;;;;;;;15.48;9.07;;;8.80;90.80;;;;;;4998743;28;20040;-77
2021/12/28 01:24:18;;;;;;;19.88;9.90;;;8.80;90.70;;;;;;5006867;28;20037;-77
2021/12/28 01:26:45;;;;;;;13.27;9.00;;;8.80;90.60;;;;;;5024767;28;20025;-77
2021/12/28 01:29:11;;;;;;;16.30;8.93;;;8.80;90.60;;;;;;4986064;28;20030;-77
2021/12/28 01:31:37;;;;;;;18.00;9.40;;;8.70;90.50;;;;;;5022667;28;20533;-77
2021/12/28 01:34:04;;;;;;;18.50;8.50;;;8.70;90.40;;;;;;5007291;28;20033;-77
2021/12/28 01:36:30;;;;;;;13.20;8.15;;;8.70;90.40;;;;;;5006843;28;20065;-77
2021/12/28 01:38:56;;;;;;;12.73;7.88;;;8.70;90.30;;;;;;5022557;28;20396;-77
2021/12/28 01:41:22;;;;;;;13.57;7.30;;;8.60;90.30;;;;;;5005976;28;20061;-77
2021/12/28 01:43:57;;;;;;;13.10;7.88;;;8.60;90.20;;;;;;5023654;28;20108;-77
2021/12/28 01:46:23;;;;;;;13.02;8.00;;;8.60;90.40;;;;;;5029326;28;20053;-77
2021/12/28 01:48:48;;;;;;;13.88;8.15;;;8.60;90.20;;;;;;5016344;28;20044;-77
2021/12/28 01:51:20;;;;;;;12.93;7.72;;;8.60;90.30;;;;;;5020535;28;20033;-77
2021/12/28 01:53:49;;;;;;;12.65;7.47;;;8.60;90.30;;;;;;5016750;28;20018;-77
2021/12/28 01:56:18;;;;;;;12.15;7.70;;;8.60;90.30;;;;;;5020490;28;20407;-77
2021/12/28 01:58:44;;;;;;;12.98;8.25;;;8.60;90.30;;;;;;5009670;28;20022;-77
2021/12/28 02:01:11;;;;;;;17.83;9.23;;;8.60;90.30;;;;;;5004875;28;20376;-77
2021/12/28 02:03:38;;;;;;;16.27;9.05;;;8.70;90.30;;;;;;5025808;28;20029;-77
2021/12/28 02:06:05;;;;;;;17.10;10.50;;;8.70;90.30;;;;;;5025593;28;20494;-77
2021/12/28 02:08:31;;;;;;;13.25;9.27;;;8.70;90.40;;;;;;5022457;28;20045;-77
2021/12/28 02:10:58;;;;;;;17.10;10.95;;;8.70;90.40;;;;;;5030182;28;20025;-77
2021/12/28 02:13:24;;;;;;;13.50;9.52;;;8.70;90.30;;;;;;5006679;28;20554;-77
2021/12/28 02:15:50;;;;;;;17.52;10.00;;;8.70;90.40;;;;;;5014122;28;20487;-76
2021/12/28 02:18:18;;;;;;;15.73;10.40;;;8.70;90.40;;;;;;5023441;28;20113;-77
2021/12/28 02:20:45;;;;;;;17.75;9.70;;;8.70;90.30;;;;;;5008785;28;20076;-77
2021/12/28 02:23:11;;;;;;;13.30;9.63;;;8.70;90.30;;;;;;5018445;28;20037;-77
2021/12/28 02:25:37;;;;;;;14.82;9.75;;;8.70;90.30;;;;;;5013818;28;20026;-77
2021/12/28 02:28:07;;;;;;;17.58;10.10;;;8.70;90.30;;;;;;5019184;28;20046;-77
2021/12/28 02:30:35;;;;;;;17.48;10.73;;;8.70;90.20;;;;;;5008198;28;20551;-77
2021/12/28 02:33:01;;;;;;;15.57;10.30;;;8.70;90.20;;;;;;5020587;28;20025;-77
2021/12/28 02:35:27;;;;;;;18.02;10.77;;;8.60;90.20;;;;;;5010067;28;20029;-77
2021/12/28 02:37:54;;;;;;;16.13;10.82;;;8.60;90.20;;;;;;5014719;28;20512;-77
2021/12/28 02:40:23;;;;;;;23.67;11.52;;;8.60;90.20;;;;;;5032091;28;20132;-77
2021/12/28 02:42:49;;;;;;;23.48;11.93;;;8.60;90.10;;;;;;5023214;28;20021;-77
2021/12/28 02:45:23;;;;;;;15.07;10.13;;;8.60;90.10;;;;;;5010592;28;20042;-77
2021/12/28 02:47:49;;;;;;;19.08;10.45;;;8.60;90.20;;;;;;5010341;28;20052;-77
2021/12/28 02:50:32;;;;;;;17.95;10.77;;;8.70;90.20;;;;;;5020701;28;20034;-77
2021/12/28 02:52:58;;;;;;;21.10;11.00;;;8.60;90.20;;;;;;5003908;28;20033;-77
2021/12/28 02:55:27;;;;;;;16.02;10.52;;;8.60;90.20;;;;;;5023150;28;20036;-72
2021/12/28 02:57:57;;;;;;;17.25;10.32;;;8.60;90.20;;;;;;5012111;28;20059;-72
2021/12/28 03:00:46;;;;;;;13.27;9.52;;;8.60;90.20;;;;;;5027570;28;20071;-72
2021/12/28 03:03:23;;;;;;;19.48;10.60;;;8.60;90.10;;;;;;5008449;28;20076;-72
2021/12/28 03:05:54;;;;;;;18.42;9.63;;;8.60;90.10;;;;;;5029095;28;20483;-72
2021/12/28 03:08:21;;;;;;;15.57;9.98;;;8.60;90.10;;;;;;5030367;28;20087;-72
2021/12/28 03:10:48;;;;;;;14.32;9.63;;;8.60;90.10;;;;;;5023439;28;20049;-77
2021/12/28 03:13:33;;;;;;;14.85;9.30;;;8.60;90.10;;;;;;5024861;28;20507;-77
2021/12/28 03:15:59;;;;;;;16.90;10.30;;;8.60;90.10;;;;;;5019958;28;20030;-72
2021/12/28 03:18:25;;;;;;;15.32;9.95;;;8.50;90.00;;;;;;5026571;28;20531;-72
2021/12/28 03:20:51;;;;;;;17.98;9.75;;;8.60;90.00;;;;;;5030829;28;20124;-72
2021/12/28 03:23:19;;;;;;;15.73;9.70;;;8.50;89.90;;;;;;5017907;28;20145;-72
2021/12/28 03:25:47;;;;;;;13.40;8.98;;;8.50;89.80;;;;;;5010055;28;20022;-72
2021/12/28 03:28:21;;;;;;;15.52;9.57;;;8.50;89.80;;;;;;5028788;28;20047;-72
2021/12/28 03:30:48;;;;;;;15.18;9.75;;;8.50;89.70;;;;;;5030923;28;20052;-72
2021/12/28 03:33:14;;;;;;;11.00;8.95;;;8.50;89.60;;;;;;5005210;28;20445;-72
2021/12/28 03:35:40;;;;;;;13.60;9.68;;;8.50;89.60;;;;;;5026225;28;20036;-72
2021/12/28 03:38:06;;;;;;;16.50;9.68;;;8.50;89.50;;;;;;5020085;28;20777;-72
2021/12/28 03:40:33;;;;;;;9.77;8.32;;;8.50;89.50;;;;;;4996894;28;20103;-72
2021/12/28 03:42:59;;;;;;;12.50;9.00;;;8.50;89.40;;;;;;5008234;28;20053;-72
2021/12/28 03:45:25;;;;;;;11.75;8.63;;;8.40;89.30;;;;;;5008060;28;20354;-72
2021/12/28 03:47:51;;;;;;;13.95;8.70;;;8.40;89.10;;;;;;5009144;28;20527;-77
2021/12/28 03:50:19;;;;;;;14.95;9.02;;;8.40;89.10;;;;;;5002341;28;20112;-77
2021/12/28 03:52:45;;;;;;;12.45;8.65;;;8.40;89.00;;;;;;5014588;28;20030;-77
2021/12/28 03:55:12;;;;;;;14.25;9.02;;;8.40;88.90;;;;;;5016897;28;20034;-77
2021/12/28 03:57:39;;;;;;;14.73;8.88;;;8.40;88.80;;;;;;5031365;28;20053;-77
2021/12/28 04:00:08;;;;;;;13.32;8.57;;;8.40;89.00;;;;;;5008505;28;20030;-77
2021/12/28 04:02:34;;;;;;;13.10;9.02;;;8.40;89.00;;;;;;5013073;28;20025;-77
2021/12/28 04:05:00;;;;;;;12.52;8.38;;;8.30;89.00;;;;;;5003021;28;20030;-77
2021/12/28 04:07:26;;;;;;;14.65;9.15;;;8.40;89.10;;;;;;5008026;28;20072;-78
2021/12/28 04:12:18;;;;;;;15.25;8.85;;;8.40;89.00;;;;;;5023713;28;20038;-77
2021/12/28 04:14:44;;;;;;;14.52;9.32;;;8.40;89.00;;;;;;4988062;28;20053;-77
2021/12/28 04:17:10;;;;;;;15.30;9.00;;;8.40;89.00;;;;;;4997327;28;20061;-77
2021/12/28 04:19:36;;;;;;;11.90;7.80;;;8.40;89.10;;;;;;5020448;28;20485;-77
2021/12/28 04:22:02;;;;;;;14.48;9.52;;;8.40;89.10;;;;;;5032152;28;20070;-77
2021/12/28 04:24:28;;;;;;;14.70;9.25;;;8.40;89.10;;;;;;5020215;28;20037;-77
2021/12/28 04:26:54;;;;;;;13.45;8.88;;;8.40;89.20;;;;;;5001035;28;20060;-77
2021/12/28 04:29:19;;;;;;;15.30;8.60;;;8.40;89.10;;;;;;5021842;28;20381;-77
2021/12/28 04:31:45;;;;;;;13.50;8.80;;;8.40;89.10;;;;;;5021142;28;20085;-77
2021/12/28 04:34:11;;;;;;;15.52;9.48;;;8.40;89.20;;;;;;5015745;28;20029;-77
2021/12/28 04:36:36;;;;;;;11.45;7.78;;;8.40;89.30;;;;;;5019814;28;20074;-77
2021/12/28 04:39:04;;;;;;;17.67;8.75;;;8.40;89.20;;;;;;4998926;28;20060;-72
2021/12/28 04:41:30;;;;;;;13.75;8.82;;;8.40;89.30;;;;;;5018384;28;20033;-72
2021/12/28 04:43:56;;;;;;;14.70;8.43;;;8.40;89.30;;;;;;5014668;28;20555;-72
2021/12/28 04:46:22;;;;;;;11.70;7.68;;;8.40;89.30;;;;;;5020884;28;20033;-72
2021/12/28 04:48:47;;;;;;;11.63;7.57;;;8.40;89.30;;;;;;5018022;28;20029;-72
2021/12/28 04:51:13;;;;;;;14.82;8.82;;;8.40;89.40;;;;;;5016895;28;20037;-72
2021/12/28 04:53:39;;;;;;;15.07;7.40;;;8.40;89.40;;;;;;5007085;28;20025;-78
2021/12/28 04:56:04;;;;;;;13.07;7.80;;;8.50;89.50;;;;;;5023250;28;20121;-77
2021/12/28 04:58:30;;;;;;;10.32;6.95;;;8.50;89.50;;;;;;5007784;28;20045;-77
2021/12/28 05:00:56;;;;;;;16.02;7.45;;;8.50;89.50;;;;;;5029875;28;20027;-72
2021/12/28 05:03:22;;;;;;;12.02;6.90;;;8.50;89.50;;;;;;4992813;28;20041;-71
2021/12/28 05:05:50;;;;;;;11.73;7.15;;;8.50;89.50;;;;;;5019034;28;20530;-72
2021/12/28 05:08:19;;;;;;;11.95;6.30;;;8.50;89.50;;;;;;5022543;28;20029;-72
2021/12/28 05:10:44;;;;;;;10.63;6.53;;;8.60;89.50;;;;;;5026404;28;20029;-71
2021/12/28 05:13:11;;;;;;;14.43;6.63;;;8.60;89.50;;;;;;5021739;28;20094;-72
2021/12/28 05:15:37;;;;;;;11.00;6.68;;;8.50;89.50;;;;;;4991629;28;20500;-73
2021/12/28 05:18:04;;;;;;;11.90;7.78;;;8.50;89.50;;;;;;5014956;28;20067;-72
2021/12/28 05:20:31;;;;;;;9.73;6.13;;;8.60;89.60;;;;;;5026615;28;20044;-72
2021/12/28 05:22:57;;;;;;;14.00;6.85;;;8.60;89.60;;;;;;4995225;28;20026;-71
2021/12/28 05:25:22;;;;;;;15.10;7.32;;;8.60;89.60;;;;;;5011413;28;20042;-72
2021/12/28 05:27:48;;;;;;;12.50;6.53;;;8.60;89.60;;;;;;5011732;28;20037;-77
2021/12/28 05:30:14;;;;;;;14.32;6.90;;;8.60;89.60;;;;;;5008573;28;20036;-78
2021/12/28 05:32:40;;;;;;;15.77;6.82;;;8.60;89.70;;;;;;5004338;28;20041;-78
2021/12/28 05:35:07;;;;;;;12.32;7.20;;;8.60;89.70;;;;;;5010046;28;20476;-78
2021/12/28 05:37:34;;;;;;;14.30;6.78;;;8.60;89.70;;;;;;5015826;28;20049;-77
2021/12/28 05:39:59;;;;;;;12.95;5.82;;;8.60;89.80;;;;;;5025622;28;20147;-77
2021/12/28 05:42:25;;;;;;;11.23;6.13;;;8.60;89.80;;;;;;5011900;28;20124;-77
2021/12/28 05:44:51;;;;;;;14.55;6.60;;;8.60;89.80;;;;;;5002076;28;20434;-77
2021/12/28 05:47:16;;;;;;;10.63;6.20;;;8.60;89.80;;;;;;5013117;28;20511;-78
2021/12/28 05:49:43;;;;;;;17.33;6.20;;;8.60;89.90;;;;;;5006466;28;20594;-78
2021/12/28 05:52:08;;;;;;;13.43;6.45;;;8.60;89.90;;;;;;5022589;28;20104;-78
2021/12/28 05:54:34;;;;;;;11.43;5.90;;;8.60;90.20;;;;;;5014970;28;20580;-78
2021/12/28 05:57:01;;;;;;;13.50;5.53;;;8.60;90.00;;;;;;5026948;28;20468;-77
2021/12/28 05:59:27;;;;;;;12.23;5.13;;;8.60;89.90;;;;;;5030709;28;20045;-78
2021/12/28 06:01:52;;;;;;;11.02;5.53;;;8.60;89.90;;;;;;5023377;28;20040;-78
2021/12/28 06:04:18;;;;;;;15.57;6.05;;;8.60;89.90;;;;;;5015885;28;20018;-77
2021/12/28 06:06:44;;;;;;;12.45;5.63;;;8.60;89.90;;;;;;5020131;28;20030;-78
2021/12/28 06:09:09;;;;;;;11.55;5.40;;;8.60;90.00;;;;;;5018704;28;20030;-78
2021/12/28 06:11:35;;;;;;;11.35;5.43;;;8.60;89.90;;;;;;5000196;28;20041;-77
2021/12/28 06:14:01;;;;;;;10.40;5.18;;;8.60;90.00;;;;;;5014694;28;20034;-78
2021/12/28 06:16:27;;;;;;;16.67;5.50;;;8.60;89.90;;;;;;5020944;28;20030;-77
2021/12/28 06:18:53;;;;;;;11.95;5.35;;;8.60;89.90;;;;;;4995406;28;20029;-78
2021/12/28 06:21:18;;;;;;;14.68;5.38;;;8.60;89.90;;;;;;5017292;28;20022;-77
2021/12/28 06:23:44;;;;;;;15.85;5.93;;;8.60;90.00;;;;;;5016842;28;20397;-77
2021/12/28 06:26:10;;;;;;;14.88;5.50;;;8.60;90.00;;;;;;5010193;28;20033;-78
2021/12/28 06:28:36;;;;;;;13.27;5.32;;;8.60;90.00;;;;;;5015362;28;20038;-77
2021/12/28 06:31:01;;;;;;;11.52;4.55;;;8.60;90.00;;;;;;5019828;28;20030;-78
2021/12/28 06:33:27;;;;;;;14.98;5.22;;;8.60;90.10;;;;;;5029562;28;20147;-78
2021/12/28 06:35:54;;;;;;;16.02;5.05;;;8.60;90.10;;;;;;5002823;28;20041;-78
2021/12/28 06:38:21;;;;;;;11.88;4.65;;;8.60;90.10;;;;;;5004345;28;20050;-78
2021/12/28 06:40:47;;;;;;;14.98;5.07;;;8.60;90.20;;;;;;5013592;28;20034;-78
2021/12/28 06:43:13;;;;;;;13.70;5.03;;;8.60;90.20;;;;;;5024810;28;20038;-78
2021/12/28 06:45:39;;;;;;;14.45;4.88;;;8.60;90.20;;;;;;5025323;28;20037;-78
2021/12/28 06:48:05;;;;;;;22.92;6.10;;;8.60;90.30;;;;;;5018727;28;20388;-77
2021/12/28 06:50:31;;;;;;;13.50;4.65;;;8.70;90.30;;;;;;5011496;28;20038;-78
2021/12/28 06:52:57;;;;;;;12.85;4.55;;;8.60;90.30;;;;;;5042277;28;20429;-78
2021/12/28 06:55:23;;;;;;;15.77;3.80;;;8.70;90.40;;;;;;5022028;28;20124;-78
2021/12/28 06:57:49;;;;;;;15.25;4.43;;;8.70;90.40;;;;;;5030744;28;20112;-78
2021/12/28 07:00:17;;;;;;;13.98;4.18;;;8.70;90.40;;;;;;5010975;28;20033;-78
2021/12/28 07:02:43;;;;;;;14.52;4.03;;;8.70;90.50;;;;;;5018026;28;20148;-78
2021/12/28 07:05:12;;;;;;;17.92;4.75;;;8.70;90.50;;;;;;5015722;28;20384;-78
2021/12/28 07:07:39;;;;;;;11.10;4.05;;;8.70;90.60;;;;;;5017523;28;20030;-78
2021/12/28 07:10:07;;;;;;;17.13;5.47;;;8.70;90.60;;;;;;5021348;28;20037;-78
2021/12/28 07:12:33;;;;;;;9.55;3.22;;;8.70;90.70;;;;;;5024671;28;20030;-78
2021/12/28 07:14:59;;;;;;;14.10;3.42;;;8.80;90.70;;;;;;5023332;28;20480;-78
2021/12/28 07:17:26;;;;;;;17.80;4.45;;;8.80;90.70;;;;;;5016934;28;20040;-78
2021/12/28 07:19:53;;;;;;;12.65;3.20;;;8.80;90.70;;;;;;5032187;28;20029;-78
2021/12/28 07:22:19;;;;;;;15.00;3.92;;;8.80;90.70;;;;;;5029243;28;20061;-78
2021/12/28 07:24:45;;;;;;;9.55;3.35;;;8.80;90.80;;;;;;5027494;28;20106;-78
2021/12/28 07:27:10;;;;;;;11.32;4.00;;;8.80;90.70;;;;;;5022635;28;20149;-78
2021/12/28 07:29:36;;;;;;;10.07;3.10;;;8.80;90.80;;;;;;5027413;28;20100;-78
2021/12/28 07:32:08;;;;;;;13.18;3.97;;;8.80;90.70;;;;;;5027360;28;20040;-78
2021/12/28 07:34:34;;;;;;;16.13;4.20;;;8.80;90.80;;;;;;4997510;28;20026;-78
2021/12/28 07:37:00;;;;;;;14.02;3.97;;;8.90;90.80;;;;;;5022914;28;20046;-78
2021/12/28 07:39:26;;;;;;;11.15;3.70;;;8.80;90.80;;;;;;5028304;28;20061;-78
2021/12/28 07:41:52;;;;;;;10.73;3.55;;;8.90;90.80;;;;;;5029998;28;20029;-78
2021/12/28 07:44:17;;;;;;;20.35;5.13;;;8.90;90.90;;;;;;5026187;28;20102;-78
2021/12/28 07:46:43;;;;;;;12.73;4.05;;;8.90;90.90;;;;;;5036892;28;20041;-78
2021/12/28 07:49:09;;;;;;;15.05;3.60;;;8.90;91.00;;;;;;5018001;28;20030;-78
2021/12/28 07:51:35;;;;;;;13.02;3.55;;;8.90;91.00;;;;;;5016210;28;20028;-78
2021/12/28 07:54:01;;;;;;;11.02;4.00;;;8.90;90.90;;;;;;5026429;28;20030;-78
2021/12/28 07:56:27;;;;;;;10.30;3.53;;;9.00;91.00;;;;;;5020029;28;20029;-77
2021/12/28 07:58:52;;;;;;;8.15;3.33;;;8.90;90.90;;;;;;5024989;28;20044;-76
2021/12/28 08:01:18;;;;;;;10.35;3.03;;;8.90;90.90;;;;;;5016813;28;20513;-76
2021/12/28 08:03:44;;;;;;;11.73;3.55;;;9.00;91.00;;;;;;5020201;28;20077;-77
2021/12/28 08:06:09;;;;;;;16.95;4.07;;;9.00;91.20;;;;;;5030823;28;20380;-77
2021/12/28 08:08:35;;;;;;;15.35;3.92;;;9.00;91.00;;;;;;5026954;28;20033;-77
2021/12/28 08:11:02;;;;;;;10.25;3.40;;;9.00;91.00;;;;;;5025762;28;20758;-77
2021/12/28 08:13:28;;;;;;;18.10;3.63;;;9.00;91.10;;;;;;5027713;28;20034;-77
2021/12/28 08:15:55;;;;;;;14.15;3.53;;;9.00;91.00;;;;;;5012746;28;20121;-76
2021/12/28 08:18:21;;;;;;;10.52;2.95;;;9.00;91.00;;;;;;5023306;28;20076;-76
2021/12/28 08:20:47;;;;;;;9.35;3.65;;;9.10;91.00;;;;;;5029359;28;20448;-77
2021/12/28 08:23:13;;;;;;;10.98;4.80;;;9.00;91.10;;;;;;5023478;28;20492;-76
2021/12/28 08:25:38;;;;;;;10.75;3.17;;;9.00;91.10;;;;;;5026255;28;20017;-76
2021/12/28 08:28:06;;;;;;;16.45;3.25;;;9.00;91.10;;;;;;5030090;28;20387;-72
2021/12/28 08:30:35;;;;;;;6.65;2.92;;;9.10;91.10;;;;;;5029854;28;20057;-77
2021/12/28 08:33:02;;;;;;;9.82;3.05;;;9.10;91.10;;;;;;5014830;28;20026;-77
2021/12/28 08:35:28;;;;;;;7.88;3.05;;;9.10;91.10;;;;;;5019044;28;20032;-77
2021/12/28 08:37:54;;;;;;;10.55;3.08;;;9.10;91.10;;;;;;5028850;28;20062;-76
2021/12/28 08:40:20;;;;;;;10.90;3.20;;;9.10;91.20;;;;;;5014948;28;20061;-76
2021/12/28 08:42:46;;;;;;;15.00;3.58;;;9.10;91.20;;;;;;5017658;28;20038;-77
2021/12/28 08:45:12;;;;;;;13.80;3.50;;;9.10;91.30;;;;;;5011970;28;20034;-77
2021/12/28 08:47:38;;;;;;;7.78;2.70;;;9.10;91.30;;;;;;5023569;28;20080;-77
2021/12/28 08:50:08;;;;;;;9.65;2.70;;;9.10;91.30;;;;;;5016179;28;20029;-77
2021/12/28 08:52:35;;;;;;;7.95;2.97;;;9.10;91.30;;;;;;5013985;28;20113;-77
2021/12/28 08:55:02;;;;;;;7.68;2.70;;;9.10;91.30;;;;;;5020054;28;20507;-77
2021/12/28 08:57:27;;;;;;;12.77;3.10;;;9.20;91.30;;;;;;5028269;28;20029;-77
2021/12/28 08:59:53;;;;;;;12.43;3.42;;;9.10;91.40;;;;;;5025133;28;20040;-77
2021/12/28 09:02:19;;;;;;;12.88;3.05;;;9.10;91.40;;;;;;5014050;28;20104;-76
2021/12/28 09:04:46;;;;;;;7.85;2.70;;;9.20;91.40;;;;;;5014182;28;20073;-77
2021/12/28 09:07:17;;;;;;;9.75;2.80;;;9.20;91.40;;;;;;5012449;28;20484;-76
2021/12/28 09:09:44;;;;;;;10.88;3.67;;;9.20;91.50;;;;;;5016131;28;20037;-77
2021/12/28 09:12:11;;;;;;;6.50;2.92;;;9.20;91.50;;;;;;5008975;28;20432;-77
2021/12/28 09:14:37;;;;;;;9.40;3.30;;;9.20;91.50;;;;;;5032160;28;20111;-77
2021/12/28 09:17:04;;;;;;;12.73;3.80;;;9.20;91.60;;;;;;5032841;28;20167;-77
2021/12/28 09:19:31;;;;;;;11.10;3.00;;;9.20;91.70;;;;;;5035288;28;20061;-77
2021/12/28 09:21:58;;;;;;;9.75;2.80;;;9.20;91.70;;;;;;5042887;28;20029;-77
2021/12/28 09:24:23;;;;;;;9.88;2.75;;;9.30;91.70;;;;;;5031624;28;20100;-76
2021/12/28 09:26:49;;;;;;;7.22;3.00;;;9.30;91.70;;;;;;5030052;28;20033;-76
2021/12/28 09:29:15;;;;;;;6.93;2.70;;;9.30;91.90;;;;;;5016398;28;20040;-76
2021/12/28 09:31:41;;;;;;;11.45;3.67;;;9.30;91.70;;;;;;5039416;28;20021;-76
2021/12/28 09:34:06;;;;;;;8.73;3.20;;;9.40;91.80;;;;;;5046258;28;20051;-77
2021/12/28 09:36:32;;;;;;;9.30;2.80;;;9.40;92.10;;;;;;5014541;28;20464;-76
2021/12/28 09:38:58;;;;;;;7.53;3.10;;;9.40;91.80;;;;;;5021646;28;20037;-77
2021/12/28 09:41:23;;;;;;;8.80;2.92;;;9.40;91.90;;;;;;5019822;28;20036;-77
2021/12/28 09:43:49;;;;;;;5.53;2.92;;;9.40;91.90;;;;;;5020761;28;20033;-78
2021/12/28 09:46:15;;;;;;;4.90;2.90;;;9.40;91.90;;;;;;4995844;28;20033;-77
2021/12/28 09:48:41;;;;;;;7.15;3.47;;;9.40;92.00;;;;;;5018825;28;20046;-78
2021/12/28 09:51:08;;;;;;;6.68;3.53;;;9.40;92.10;;;;;;5023856;28;20669;-78
2021/12/28 09:53:35;;;;;;;6.50;3.20;;;9.40;92.10;;;;;;5017511;28;20030;-78
2021/12/28 09:56:02;;;;;;;6.10;3.10;;;9.40;92.20;;;;;;5029494;28;20025;-77
2021/12/28 09:58:27;;;;;;;5.22;3.30;;;9.40;92.20;;;;;;5019463;28;20480;-78
2021/12/28 10:00:53;;;;;;;5.43;2.95;;;9.40;92.20;;;;;;5029719;28;20071;-78
2021/12/28 10:03:19;;;;;;;6.18;3.67;;;9.50;92.20;;;;;;5028516;28;20077;-78
2021/12/28 10:05:45;;;;;;;3.80;2.90;;;9.50;92.30;;;;;;5016991;28;20025;-78
2021/12/28 10:08:13;;;;;;;3.97;2.78;;;9.50;92.30;;;;;;5029389;28;20034;-78
2021/12/28 10:10:47;;;;;;;6.32;3.60;;;9.50;92.30;;;;;;5029900;28;20101;-78
2021/12/28 10:13:24;;;;;;;5.32;3.03;;;9.50;92.30;;;;;;5029597;28;20087;-78
2021/12/28 10:15:52;;;;;;;4.22;3.00;;;9.60;92.40;;;;;;5028730;28;20021;-78
2021/12/28 10:18:18;;;;;;;3.90;3.20;;;9.60;92.40;;;;;;5029101;28;20025;-78
2021/12/28 10:20:51;;;;;;;5.05;3.35;;;9.60;92.40;;;;;;5016263;28;20026;-78
2021/12/28 10:23:23;;;;;;;3.55;3.03;;;9.60;92.40;;;;;;5023731;28;20025;-78
2021/12/28 10:25:52;;;;;;;3.78;2.90;;;9.60;92.30;;;;;;5025561;28;20037;-78
2021/12/28 10:28:24;;;;;;;4.22;3.65;;;9.60;92.30;;;;;;5026533;28;20026;-78
2021/12/28 10:31:17;;;;;;;4.60;3.50;;;9.70;92.40;;;;;;5018156;28;20032;-77
2021/12/28 10:33:43;;;;;;;4.80;3.13;;;9.70;92.30;;;;;;5014170;28;20056;-78
2021/12/28 10:36:14;;;;;;;4.25;3.45;;;9.70;92.30;;;;;;5023241;28;20053;-78
2021/12/28 10:38:45;;;;;;;5.72;3.60;;;9.70;92.30;;;;;;5025124;28;20096;-78
2021/12/28 10:41:17;;;;;;;4.03;3.40;;;9.70;92.30;;;;;;5021930;28;20108;-77
2021/12/28 10:43:45;;;;;;;4.35;3.38;;;9.70;92.30;;;;;;5017056;28;20561;-78
2021/12/28 10:46:17;;;;;;;6.78;4.15;;;9.80;92.30;;;;;;5035535;28;20104;-77
2021/12/28 10:48:50;;;;;;;3.85;3.55;;;9.80;92.30;;;;;;5030871;28;20459;-78
2021/12/28 10:51:21;;;;;;;5.07;3.42;;;9.80;92.30;;;;;;5032662;28;20030;-77
2021/12/28 10:54:06;;;;;;;4.70;4.00;;;9.80;92.30;;;;;;5021378;28;20059;-77
2021/12/28 10:56:37;;;;;;;4.20;3.78;;;9.80;92.30;;;;;;5029581;28;20032;-77
2021/12/28 10:59:05;;;;;;;4.82;4.28;;;9.80;92.30;;;;;;5025676;28;20080;-77
2021/12/28 11:01:35;;;;;;;4.63;3.78;;;9.80;92.30;;;;;;5023733;28;20025;-77
2021/12/28 11:04:09;;;;;;;4.00;3.58;;;9.80;92.30;;;;;;5020619;28;20473;-77
2021/12/28 11:06:40;;;;;;;3.90;3.50;;;9.80;92.30;;;;;;5017502;28;20014;-77
2021/12/28 11:09:12;;;;;;;5.53;4.47;;;9.90;92.30;;;;;;5017442;28;20032;-77
2021/12/28 11:11:40;;;;;;;5.68;4.82;;;9.90;92.20;;;;;;5016292;28;20021;-76
2021/12/28 11:14:09;;;;;;;4.63;4.22;;;9.90;92.30;;;;;;5021830;28;20033;-77
2021/12/28 11:16:36;;;;;;;5.53;4.03;;;9.90;92.30;;;;;;5029086;28;20037;-77
2021/12/28 11:19:05;;;;;;;5.80;3.80;;;9.90;92.30;;;;;;5025974;28;20556;-77
2021/12/28 11:21:35;;;;;;;5.60;3.60;;;9.90;92.30;;;;;;5016620;28;20167;-77
2021/12/28 11:24:19;;;;;;;4.75;3.75;;;10.00;92.30;;;;;;5023170;28;20033;-77
2021/12/28 11:26:50;;;;;;;5.43;4.65;;;10.00;92.30;;;;;;5014179;28;20042;-77
2021/12/28 11:29:27;;;;;;;5.50;4.40;;;10.00;92.30;;;;;;5020781;28;20053;-77
2021/12/28 11:31:57;;;;;;;4.13;3.60;;;10.00;92.30;;;;;;5026122;28;20148;-77
2021/12/28 11:34:35;;;;;;;5.80;3.65;;;10.00;92.30;;;;;;5025381;28;20091;-77
2021/12/28 11:37:12;;;;;;;4.65;3.30;;;10.00;92.30;;;;;;5026530;28;20057;-77
2021/12/28 11:39:41;;;;;;;4.85;3.80;;;10.00;92.30;;;;;;5015892;28;20378;-77
2021/12/28 11:42:09;;;;;;;4.10;3.70;;;10.00;92.30;;;;;;5015906;28;20488;-77
2021/12/28 11:44:36;;;;;;;4.80;4.15;;;10.00;92.30;;;;;;5017036;28;20064;-77
2021/12/28 11:47:04;;;;;;;4.55;3.47;;;10.10;92.30;;;;;;5005274;28;20075;-77
2021/12/28 11:49:30;;;;;;;3.80;3.40;;;10.10;92.20;;;;;;5027283;28;20472;-77
2021/12/28 11:52:00;;;;;;;5.13;4.63;;;10.10;92.20;;;;;;5022536;28;20026;-76
2021/12/28 11:54:28;;;;;;;4.47;3.45;;;10.10;92.20;;;;;;5024120;28;20514;-77
2021/12/28 11:57:01;;;;;;;4.05;3.60;;;10.10;92.20;;;;;;5027117;28;20067;-77
2021/12/28 11:59:28;;;;;;;4.70;4.30;;;10.10;92.20;;;;;;5012164;28;20388;-77
2021/12/28 12:02:00;;;;;;;7.78;5.75;;;10.20;92.20;;;;;;5015408;28;20105;-77
2021/12/28 12:04:43;;;;;;;6.75;5.80;;;10.20;92.30;;;;;;5026818;28;20036;-77
2021/12/28 12:07:14;;;;;;;5.05;4.55;;;10.20;92.30;;;;;;5021915;28;20029;-77
2021/12/28 12:09:49;;;;;;;5.20;4.22;;;10.20;92.30;;;;;;5022763;28;20376;-77
2021/12/28 12:12:21;;;;;;;5.07;4.07;;;10.20;92.20;;;;;;5016261;28;20477;-77
2021/12/28 12:14:58;;;;;;;5.63;4.30;;;10.20;92.30;;;;;;5020329;28;20060;-77
2021/12/28 12:17:30;;;;;;;5.57;4.07;;;10.20;92.30;;;;;;5015498;28;20059;-77
2021/12/28 12:19:59;;;;;;;5.32;4.47;;;10.20;92.30;;;;;;5025221;28;20030;-77
2021/12/28 12:22:30;;;;;;;4.70;4.20;;;10.20;92.40;;;;;;5028973;28;20371;-76
2021/12/28 12:25:07;;;;;;;4.07;3.70;;;10.20;92.40;;;;;;5030030;28;20033;-76
2021/12/28 12:27:43;;;;;;;4.10;3.65;;;10.20;92.40;;;;;;5014782;28;20119;-77
2021/12/28 12:30:17;;;;;;;4.97;3.88;;;10.20;92.40;;;;;;5030767;28;20029;-77
2021/12/28 12:32:58;;;;;;;5.43;3.55;;;10.20;92.40;;;;;;5019834;28;20061;-77
2021/12/28 12:35:33;;;;;;;3.90;3.30;;;10.20;92.50;;;;;;5029991;28;20017;-77
2021/12/28 12:38:01;;;;;;;3.38;2.83;;;10.30;92.50;;;;;;5021882;28;20492;-77
2021/12/28 12:40:59;;;;;;;4.93;3.25;;;10.30;92.50;;;;;;5026951;28;20473;-77
2021/12/28 12:43:39;;;;;;;3.63;2.42;;;10.30;92.60;;;;;;5023855;28;20035;-77
2021/12/28 12:46:37;;;;;;;3.35;2.47;;;10.30;92.60;;;;;;5020279;28;20040;-77
2021/12/28 12:49:11;;;;;;;5.25;1.83;;;10.30;92.60;;;;;;5012282;28;20044;-77
2021/12/28 12:51:50;;;;;;;6.47;2.30;;;10.30;92.60;;;;;;5029677;28;20097;-76
2021/12/28 12:54:22;;;;;;;3.90;1.90;;;10.30;92.40;;;;;;5021692;28;20428;-76
2021/12/28 12:56:50;;;;;;;6.22;1.95;;;10.30;92.20;;;;;;5013957;28;20060;-77